createdAt,value
2019-02-15T00:00:27.648Z,10.40
2019-02-15T00:02:30.657Z,10.70
2019-02-15T00:04:32.010Z,11.53
2019-02-15T00:06:33.377Z,13.28
2019-02-15T00:08:34.876Z,9.58
2019-02-15T00:10:36.289Z,11.90
2019-02-15T00:12:37.628Z,8.68
2019-02-15T00:14:48.741Z,10.40
2019-02-15T00:16:50.083Z,9.58
2019-02-15T00:18:53.373Z,12.70
2019-02-15T00:20:59.409Z,11.43
2019-02-15T00:23:00.961Z,9.48
2019-02-15T00:25:02.607Z,12.23
2019-02-15T00:27:04.019Z,11.25
2019-02-15T00:29:05.354Z,10.70
2019-02-15T00:31:08.012Z,12.03
2019-02-15T00:33:09.395Z,13.40
2019-02-15T00:35:10.797Z,11.90
2019-02-15T00:37:12.170Z,11.50
2019-02-15T00:39:13.759Z,13.58
2019-02-15T00:41:15.123Z,11.85
2019-02-15T00:43:22.117Z,17.05
2019-02-15T00:45:21.680Z,14.33
2019-02-15T00:47:27.810Z,17.60
2019-02-15T00:49:31.063Z,10.72
2019-02-15T00:51:46.496Z,11.57
2019-02-15T00:53:55.444Z,13.58
2019-02-15T00:55:58.694Z,10.40
2019-02-15T00:58:02.011Z,14.68
2019-02-15T01:00:16.686Z,13.85
2019-02-15T01:02:22.644Z,12.28
2019-02-15T01:04:31.824Z,15.43
2019-02-15T01:06:40.945Z,11.25
2019-02-15T01:09:01.331Z,10.88
2019-02-15T01:11:07.232Z,14.15
2019-02-15T01:13:10.543Z,12.95
2019-02-15T01:15:11.907Z,11.70
2019-02-15T01:17:13.257Z,16.85
2019-02-15T01:19:14.623Z,11.43
2019-02-15T01:21:16.407Z,14.15
2019-02-15T01:23:17.775Z,9.95
2019-02-15T01:25:19.251Z,13.80
2019-02-15T01:27:25.380Z,11.22
2019-02-15T01:29:40.497Z,12.73
2019-02-15T01:31:46.437Z,10.43
2019-02-15T01:33:52.369Z,12.43
2019-02-15T01:36:14.109Z,9.90
2019-02-15T01:38:29.428Z,11.57
2019-02-15T01:40:41.612Z,11.63
2019-02-15T01:42:47.977Z,7.50
2019-02-15T01:45:03.122Z,8.40
2019-02-15T01:47:06.410Z,11.70
2019-02-15T01:49:07.730Z,11.38
2019-02-15T01:51:09.334Z,11.65
2019-02-15T01:53:10.682Z,10.63
2019-02-15T01:55:12.022Z,11.90
2019-02-15T01:57:13.582Z,11.35
2019-02-15T01:59:14.971Z,11.88
2019-02-15T02:01:18.237Z,13.35
2019-02-15T02:03:19.616Z,11.55
2019-02-15T02:05:20.961Z,10.28
2019-02-15T02:07:22.305Z,10.15
2019-02-15T02:09:23.782Z,10.15
2019-02-15T02:11:25.139Z,10.43
2019-02-15T02:13:26.478Z,10.55
2019-02-15T02:15:27.850Z,14.25
2019-02-15T02:17:29.213Z,11.48
2019-02-15T02:19:30.707Z,13.53
2019-02-15T02:21:37.214Z,12.80
2019-02-15T02:23:38.595Z,13.68
2019-02-15T02:25:39.934Z,13.83
2019-02-15T02:27:43.196Z,13.20
2019-02-15T02:29:44.566Z,17.37
2019-02-15T02:31:45.958Z,15.45
2019-02-15T02:33:47.290Z,16.90
2019-02-15T02:35:48.721Z,15.75
2019-02-15T02:37:50.111Z,14.75
2019-02-15T02:39:52.732Z,19.17
2019-02-15T02:41:54.071Z,17.17
2019-02-15T02:43:59.607Z,17.87
2019-02-15T02:45:58.691Z,15.88
2019-02-15T02:48:00.091Z,17.65
2019-02-15T02:50:01.534Z,14.65
2019-02-15T02:52:02.922Z,16.95
2019-02-15T02:54:04.283Z,17.27
2019-02-15T02:56:05.820Z,13.25
2019-02-15T02:58:07.196Z,14.50
2019-02-15T03:00:08.938Z,16.97
2019-02-15T03:02:10.338Z,14.73
2019-02-15T03:04:11.678Z,19.12
2019-02-15T03:06:13.010Z,14.23
2019-02-15T03:08:14.409Z,13.35
2019-02-15T03:10:17.076Z,14.10
2019-02-15T03:12:18.422Z,14.68
2019-02-15T03:14:19.810Z,13.35
2019-02-15T03:16:21.249Z,13.58
2019-02-15T03:18:22.644Z,19.30
2019-02-15T03:20:31.181Z,19.15
2019-02-15T03:22:27.236Z,16.17
2019-02-15T03:24:28.591Z,13.15
2019-02-15T03:26:29.967Z,16.50
2019-02-15T03:28:31.381Z,17.20
2019-02-15T03:30:32.739Z,14.93
2019-02-15T03:32:34.151Z,19.50
2019-02-15T03:34:36.408Z,16.32
2019-02-15T03:36:56.638Z,16.40
2019-02-15T03:38:59.964Z,20.45
2019-02-15T03:41:03.470Z,16.05
2019-02-15T03:43:04.803Z,15.83
2019-02-15T03:45:07.359Z,15.43
2019-02-15T03:47:08.755Z,16.67
2019-02-15T03:49:10.104Z,17.07
2019-02-15T03:51:13.354Z,18.73
2019-02-15T03:53:14.728Z,30.08
2019-02-15T03:55:16.113Z,20.12
2019-02-15T03:57:17.555Z,17.55
2019-02-15T03:59:19.220Z,14.40
2019-02-15T04:01:20.762Z,18.25
2019-02-15T04:03:22.096Z,19.90
2019-02-15T04:05:23.462Z,26.12
2019-02-15T04:07:24.832Z,24.77
2019-02-15T04:09:26.169Z,18.32
2019-02-15T04:11:27.548Z,15.55
2019-02-15T04:13:28.937Z,19.42
2019-02-15T04:15:30.299Z,16.45
2019-02-15T04:17:31.615Z,17.23
2019-02-15T04:19:33.000Z,16.45
2019-02-15T04:21:34.320Z,17.73
2019-02-15T04:23:39.832Z,19.67
2019-02-15T04:25:41.165Z,14.75
2019-02-15T04:27:42.503Z,20.23
2019-02-15T04:29:43.898Z,20.20
2019-02-15T04:31:45.234Z,25.05
2019-02-15T04:33:46.566Z,19.25
2019-02-15T04:35:48.017Z,18.55
2019-02-15T04:37:49.345Z,14.70
2019-02-15T04:39:50.688Z,20.02
2019-02-15T04:41:52.062Z,19.87
2019-02-15T04:43:53.419Z,19.02
2019-02-15T04:45:54.812Z,19.55
2019-02-15T04:47:56.173Z,19.15
2019-02-15T04:49:57.548Z,22.82
2019-02-15T04:51:58.906Z,20.50
2019-02-15T04:54:00.312Z,20.12
2019-02-15T04:56:01.639Z,16.00
2019-02-15T04:58:02.979Z,18.57
2019-02-15T05:00:07.446Z,15.58
2019-02-15T05:02:08.784Z,19.12
2019-02-15T05:04:10.211Z,16.17
2019-02-15T05:06:11.947Z,18.20
2019-02-15T05:08:13.278Z,21.48
2019-02-15T05:10:14.612Z,23.30
2019-02-15T05:12:16.984Z,18.42
2019-02-15T05:14:18.325Z,20.20
2019-02-15T05:16:19.719Z,18.07
2019-02-15T05:18:40.952Z,25.65
2019-02-15T05:21:02.250Z,26.73
2019-02-15T05:23:23.506Z,22.87
2019-02-15T05:25:44.782Z,22.02
2019-02-15T05:27:46.464Z,13.70
2019-02-15T05:30:07.798Z,15.00
2019-02-15T05:32:29.028Z,17.82
2019-02-15T05:34:50.364Z,18.20
2019-02-15T05:37:11.595Z,17.40
2019-02-15T05:39:32.827Z,19.73
2019-02-15T05:41:54.101Z,20.88
2019-02-15T05:44:16.373Z,16.80
2019-02-15T05:46:58.403Z,19.87
2019-02-15T05:49:19.663Z,17.42
2019-02-15T05:51:41.127Z,25.17
2019-02-15T05:54:02.376Z,26.75
2019-02-15T05:56:03.769Z,24.95
2019-02-15T05:58:25.240Z,27.40
2019-02-15T06:00:46.502Z,20.17
2019-02-15T06:03:07.936Z,27.40
2019-02-15T06:05:29.206Z,19.92
2019-02-15T06:07:50.449Z,27.55
2019-02-15T06:09:51.818Z,21.87
2019-02-15T06:12:13.085Z,21.70
2019-02-15T06:14:34.342Z,26.00
2019-02-15T06:16:55.620Z,27.73
2019-02-15T06:19:16.898Z,21.93
2019-02-15T06:21:38.173Z,23.00
2019-02-15T06:23:59.432Z,19.60
2019-02-15T06:26:20.674Z,20.65
2019-02-15T06:28:41.957Z,14.33
2019-02-15T06:31:03.209Z,13.30
2019-02-15T06:33:24.517Z,15.25
2019-02-15T06:35:40.549Z,16.95
2019-02-15T06:38:01.801Z,16.62
2019-02-15T06:40:23.094Z,17.87
2019-02-15T06:42:44.387Z,13.80
2019-02-15T06:45:06.225Z,17.35
2019-02-15T06:47:27.565Z,29.82
2019-02-15T06:49:48.872Z,25.02
2019-02-15T06:52:10.156Z,17.77
2019-02-15T06:54:31.476Z,19.48
2019-02-15T06:56:52.717Z,17.87
2019-02-15T06:59:33.901Z,18.10
2019-02-15T07:02:15.037Z,17.45
2019-02-15T07:07:25.607Z,18.02
2019-02-15T07:09:46.866Z,20.05
2019-02-15T07:12:08.097Z,16.70
2019-02-15T07:14:29.380Z,22.75
2019-02-15T07:16:50.598Z,17.80
2019-02-15T07:19:10.455Z,16.85
2019-02-15T07:21:30.241Z,15.13
2019-02-15T07:23:31.591Z,13.98
2019-02-15T07:25:32.947Z,22.25
2019-02-15T07:27:34.348Z,18.20
2019-02-15T07:29:35.689Z,17.82
2019-02-15T07:31:37.023Z,17.20
2019-02-15T07:33:38.582Z,18.95
2019-02-15T07:35:40.159Z,20.32
2019-02-15T07:37:41.526Z,18.52
2019-02-15T07:39:42.920Z,21.50
2019-02-15T07:41:44.413Z,19.60
2019-02-15T07:43:45.755Z,21.33
2019-02-15T07:45:47.315Z,28.57
2019-02-15T07:47:48.655Z,19.25
2019-02-15T07:49:50.015Z,23.12
2019-02-15T07:51:51.714Z,32.25
2019-02-15T07:53:53.048Z,34.45
2019-02-15T07:55:54.388Z,31.25
2019-02-15T07:57:55.791Z,27.10
2019-02-15T07:59:57.167Z,24.70
2019-02-15T08:02:01.850Z,23.57
2019-02-15T08:04:01.983Z,29.00
2019-02-15T08:06:03.326Z,26.40
2019-02-15T08:08:04.669Z,23.07
2019-02-15T08:10:09.387Z,26.70
2019-02-15T08:12:10.721Z,24.92
2019-02-15T08:14:14.753Z,24.27
2019-02-15T08:16:15.419Z,26.25
2019-02-15T08:18:16.749Z,25.80
2019-02-15T08:20:18.096Z,27.30
2019-02-15T08:22:19.467Z,29.00
2019-02-15T08:24:20.858Z,26.62
2019-02-15T08:26:22.244Z,29.30
2019-02-15T08:28:23.624Z,31.87
2019-02-15T08:30:24.998Z,23.98
2019-02-15T08:32:26.397Z,32.45
2019-02-15T08:34:27.768Z,27.80
2019-02-15T08:36:29.133Z,24.45
2019-02-15T08:38:30.728Z,28.38
2019-02-15T08:40:32.070Z,28.90
2019-02-15T08:42:33.519Z,26.05
2019-02-15T08:44:34.918Z,26.45
2019-02-15T08:46:36.264Z,27.77
2019-02-15T08:48:45.680Z,30.52
2019-02-15T08:50:40.927Z,23.75
2019-02-15T08:52:42.294Z,27.93
2019-02-15T08:54:43.664Z,27.60
2019-02-15T08:56:45.091Z,30.08
2019-02-15T08:58:46.429Z,22.27
2019-02-15T09:00:48.032Z,19.93
2019-02-15T09:02:49.503Z,23.12
2019-02-15T09:04:50.895Z,18.70
2019-02-15T09:06:52.283Z,17.03
2019-02-15T09:08:53.641Z,18.77
2019-02-15T09:10:55.025Z,17.97
2019-02-15T09:12:56.391Z,20.65
2019-02-15T09:14:57.770Z,18.60
2019-02-15T09:16:59.185Z,17.63
2019-02-15T09:19:00.537Z,19.17
2019-02-15T09:21:01.898Z,19.17
2019-02-15T09:23:03.395Z,19.57
2019-02-15T09:25:08.163Z,18.10
2019-02-15T09:27:11.425Z,15.37
2019-02-15T09:29:12.825Z,17.03
2019-02-15T09:31:14.234Z,15.93
2019-02-15T09:33:15.624Z,15.33
2019-02-15T09:35:16.995Z,13.47
2019-02-15T09:37:18.349Z,15.17
2019-02-15T09:39:19.704Z,15.73
2019-02-15T09:41:21.100Z,11.37
2019-02-15T09:43:22.453Z,13.47
2019-02-15T09:45:24.015Z,13.73
2019-02-15T09:47:25.427Z,13.90
2019-02-15T09:49:26.797Z,12.90
2019-02-15T09:51:28.146Z,12.27
2019-02-15T09:53:29.539Z,12.30
2019-02-15T09:55:30.894Z,11.33
2019-02-15T09:57:32.252Z,15.97
2019-02-15T09:59:33.625Z,14.70
2019-02-15T10:01:35.015Z,10.97
2019-02-15T10:03:36.361Z,10.07
2019-02-15T10:05:37.745Z,11.33
2019-02-15T10:07:39.182Z,9.90
2019-02-15T10:09:41.085Z,9.23
2019-02-15T10:11:42.617Z,9.00
2019-02-15T10:13:44.006Z,9.77
2019-02-15T10:15:45.370Z,10.53
2019-02-15T10:17:46.732Z,9.87
2019-02-15T10:19:48.172Z,8.37
2019-02-15T10:21:49.646Z,9.43
2019-02-15T10:23:51.022Z,8.40
2019-02-15T10:25:52.386Z,9.47
2019-02-15T10:27:54.208Z,9.70
2019-02-15T10:29:55.654Z,9.40
2019-02-15T10:31:56.998Z,9.90
2019-02-15T10:33:58.407Z,7.87
2019-02-15T10:35:59.765Z,8.50
2019-02-15T10:38:01.139Z,9.60
2019-02-15T10:40:08.186Z,7.40
2019-02-15T10:42:09.592Z,7.27
2019-02-15T10:44:10.949Z,8.73
2019-02-15T10:46:12.305Z,7.80
2019-02-15T10:48:13.716Z,7.93
2019-02-15T10:50:15.671Z,7.50
2019-02-15T10:52:17.067Z,8.83
2019-02-15T10:54:18.466Z,7.93
2019-02-15T10:56:19.816Z,9.30
2019-02-15T10:58:21.176Z,8.27
2019-02-15T11:00:22.577Z,8.50
2019-02-15T11:02:24.213Z,8.47
2019-02-15T11:04:25.576Z,7.57
2019-02-15T11:06:26.934Z,11.40
2019-02-15T11:08:28.326Z,8.27
2019-02-15T11:10:31.773Z,8.50
2019-02-15T11:12:32.947Z,7.57
2019-02-15T11:14:34.342Z,8.37
2019-02-15T11:16:35.713Z,7.53
2019-02-15T11:18:37.076Z,7.63
2019-02-15T11:20:38.471Z,9.57
2019-02-15T11:22:39.855Z,8.87
2019-02-15T11:24:41.218Z,7.37
2019-02-15T11:26:42.617Z,7.90
2019-02-15T11:28:43.983Z,9.00
2019-02-15T11:30:45.379Z,7.80
2019-02-15T11:32:46.963Z,6.80
2019-02-15T11:34:48.320Z,8.50
2019-02-15T11:36:49.712Z,8.27
2019-02-15T11:38:51.097Z,9.70
2019-02-15T11:40:52.471Z,10.20
2019-02-15T11:42:53.867Z,7.67
2019-02-15T11:44:55.237Z,7.63
2019-02-15T11:46:56.987Z,6.97
2019-02-15T11:48:58.587Z,9.97
2019-02-15T11:51:01.265Z,8.60
2019-02-15T11:53:02.659Z,8.60
2019-02-15T11:55:07.104Z,7.30
2019-02-15T11:57:08.558Z,7.27
2019-02-15T11:59:09.965Z,8.07
2019-02-15T12:01:11.325Z,7.37
2019-02-15T12:03:12.716Z,6.60
2019-02-15T12:05:14.074Z,7.30
2019-02-15T12:07:15.436Z,7.30
2019-02-15T12:09:16.813Z,7.50
2019-02-15T12:11:18.169Z,8.23
2019-02-15T12:13:19.743Z,8.83
2019-02-15T12:15:21.093Z,7.33
2019-02-15T12:17:22.449Z,7.43
2019-02-15T12:19:23.871Z,9.20
2019-02-15T12:21:25.254Z,8.10
2019-02-15T12:23:28.474Z,7.40
2019-02-15T12:25:29.899Z,7.40
2019-02-15T12:27:31.262Z,8.53
2019-02-15T12:29:32.641Z,8.33
2019-02-15T12:31:34.011Z,7.80
2019-02-15T12:33:35.404Z,6.97
2019-02-15T12:35:36.751Z,6.13
2019-02-15T12:37:38.400Z,6.97
2019-02-15T12:39:39.776Z,5.83
2019-02-15T12:41:41.142Z,6.20
2019-02-15T12:43:42.551Z,7.47
2019-02-15T12:45:43.964Z,5.60
2019-02-15T12:47:45.310Z,6.23
2019-02-15T12:49:46.677Z,6.40
2019-02-15T12:51:48.083Z,5.87
2019-02-15T12:53:49.480Z,4.73
2019-02-15T12:55:50.835Z,5.37
2019-02-15T12:57:52.212Z,5.73
2019-02-15T12:59:53.803Z,8.13
2019-02-15T13:01:55.172Z,7.33
2019-02-15T13:03:56.528Z,5.33
2019-02-15T13:05:57.949Z,5.60
2019-02-15T13:07:59.302Z,5.57
2019-02-15T13:10:00.774Z,4.87
2019-02-15T13:12:02.264Z,5.43
2019-02-15T13:14:03.637Z,3.43
2019-02-15T13:16:05.049Z,3.03
2019-02-15T13:18:06.403Z,4.90
2019-02-15T13:20:09.588Z,3.40
2019-02-15T13:22:10.952Z,6.47
2019-02-15T13:24:12.319Z,2.90
2019-02-15T13:26:13.781Z,2.70
2019-02-15T13:28:15.208Z,3.80
2019-02-15T13:30:16.618Z,2.90
2019-02-15T13:32:18.020Z,4.03
2019-02-15T13:34:19.393Z,2.90
2019-02-15T13:36:20.787Z,2.97
2019-02-15T13:38:22.294Z,3.53
2019-02-15T13:40:23.944Z,3.07
2019-02-15T13:42:25.337Z,3.07
2019-02-15T13:44:26.683Z,3.50
2019-02-15T13:46:28.106Z,3.43
2019-02-15T13:48:29.491Z,3.37
2019-02-15T13:50:30.868Z,3.07
2019-02-15T13:52:32.270Z,2.77
2019-02-15T13:54:33.630Z,3.00
2019-02-15T13:56:34.983Z,4.03
2019-02-15T13:58:36.387Z,3.10
2019-02-15T14:00:37.776Z,4.10
2019-02-15T14:02:39.144Z,3.73
2019-02-15T14:04:40.921Z,3.70
2019-02-15T14:06:52.184Z,3.70
2019-02-15T14:08:53.566Z,4.07
2019-02-15T14:10:54.975Z,5.67
2019-02-15T14:13:16.259Z,4.63
2019-02-15T14:15:17.629Z,3.90
2019-02-15T14:17:19.909Z,3.80
2019-02-15T14:19:21.396Z,3.50
2019-02-15T14:21:22.826Z,3.93
2019-02-15T14:23:24.180Z,4.20
2019-02-15T14:25:25.587Z,3.67
2019-02-15T14:27:26.953Z,3.50
2019-02-15T14:29:28.326Z,5.53
2019-02-15T14:31:29.741Z,4.13
2019-02-15T14:33:31.123Z,6.13
2019-02-15T14:35:32.568Z,6.40
2019-02-15T14:37:34.392Z,5.93
2019-02-15T14:39:35.766Z,6.30
2019-02-15T14:41:37.286Z,10.80
2019-02-15T14:43:38.710Z,4.00
2019-02-15T14:45:40.065Z,4.50
2019-02-15T14:47:41.438Z,16.13
2019-02-15T14:49:42.868Z,6.63
2019-02-15T14:51:44.328Z,6.20
2019-02-15T14:53:45.692Z,10.63
2019-02-15T14:55:47.115Z,8.20
2019-02-15T14:57:48.501Z,7.77
2019-02-15T14:59:50.105Z,8.07
2019-02-15T15:01:51.873Z,11.93
2019-02-15T15:03:53.226Z,12.70
2019-02-15T15:05:55.166Z,8.97
2019-02-15T15:07:56.697Z,19.63
2019-02-15T15:09:58.071Z,16.13
2019-02-15T15:11:59.470Z,20.57
2019-02-15T15:14:01.139Z,19.57
2019-02-15T15:16:02.491Z,14.40
2019-02-15T15:18:12.658Z,11.70
2019-02-15T15:20:10.261Z,14.57
2019-02-15T15:22:11.664Z,25.20
2019-02-15T15:24:13.087Z,16.97
2019-02-15T15:26:14.507Z,9.07
2019-02-15T15:28:16.266Z,10.10
2019-02-15T15:30:17.651Z,8.60
2019-02-15T15:32:19.074Z,8.67
2019-02-15T15:34:20.501Z,10.07
2019-02-15T15:36:21.895Z,9.90
2019-02-15T15:38:23.263Z,10.40
2019-02-15T15:40:24.721Z,6.77
2019-02-15T15:42:26.218Z,8.13
2019-02-15T15:44:27.572Z,5.47
2019-02-15T15:46:29.009Z,6.40
2019-02-15T15:48:30.360Z,6.77
2019-02-15T15:50:31.723Z,7.80
2019-02-15T15:52:33.224Z,7.00
2019-02-15T15:54:36.503Z,7.90
2019-02-15T15:56:37.864Z,6.70
2019-02-15T15:58:39.281Z,6.20
2019-02-15T16:00:40.823Z,6.63
2019-02-15T16:02:42.311Z,7.80
2019-02-15T16:04:43.698Z,6.13
2019-02-15T16:06:45.050Z,5.33
2019-02-15T16:08:46.407Z,7.70
2019-02-15T16:10:47.871Z,9.20
2019-02-15T16:12:49.212Z,6.17
2019-02-15T16:14:50.609Z,7.10
2019-02-15T16:16:51.977Z,7.53
2019-02-15T16:18:53.386Z,6.17
2019-02-15T16:20:54.807Z,7.40
2019-02-15T16:22:56.153Z,6.73
2019-02-15T16:24:57.508Z,11.20
2019-02-15T16:26:58.962Z,5.43
2019-02-15T16:29:00.316Z,9.00
2019-02-15T16:31:01.686Z,6.80
2019-02-15T16:33:03.287Z,9.37
2019-02-15T16:35:05.360Z,10.43
2019-02-15T16:37:06.706Z,18.63
2019-02-15T16:39:08.318Z,19.50
2019-02-15T16:41:09.696Z,8.67
2019-02-15T16:43:11.488Z,17.23
2019-02-15T16:45:14.153Z,8.70
2019-02-15T16:47:15.501Z,8.23
2019-02-15T16:49:16.977Z,11.37
2019-02-15T16:51:18.402Z,25.33
2019-02-15T16:53:19.746Z,16.90
2019-02-15T16:55:21.180Z,20.97
2019-02-15T16:57:22.545Z,14.03
2019-02-15T16:59:23.908Z,13.57
2019-02-15T17:01:25.326Z,9.00
2019-02-15T17:03:26.750Z,7.23
2019-02-15T17:05:28.235Z,11.63
2019-02-15T17:07:29.592Z,7.07
2019-02-15T17:09:30.972Z,5.77
2019-02-15T17:11:32.424Z,6.50
2019-02-15T17:13:34.736Z,5.73
2019-02-15T17:15:36.316Z,6.70
2019-02-15T17:17:37.741Z,6.57
2019-02-15T17:19:39.100Z,5.17
2019-02-15T17:21:40.537Z,8.73
2019-02-15T17:23:41.902Z,6.10
2019-02-15T17:25:43.249Z,6.37
2019-02-15T17:27:44.676Z,7.50
2019-02-15T17:29:46.074Z,9.93
2019-02-15T17:31:47.449Z,34.90
2019-02-15T17:33:48.862Z,14.27
2019-02-15T17:35:50.250Z,12.83
2019-02-15T17:37:51.708Z,12.67
2019-02-15T17:39:53.066Z,11.40
2019-02-15T17:41:54.427Z,11.67
2019-02-15T17:43:55.829Z,9.47
2019-02-15T17:45:57.208Z,12.47
2019-02-15T17:47:58.694Z,14.67
2019-02-15T17:50:00.076Z,12.93
2019-02-15T17:52:01.602Z,10.30
2019-02-15T17:54:02.990Z,9.30
2019-02-15T17:56:04.442Z,11.10
2019-02-15T17:58:05.795Z,8.67
2019-02-15T18:00:11.358Z,7.73
2019-02-15T18:02:12.789Z,8.00
2019-02-15T18:04:14.218Z,9.73
2019-02-15T18:06:15.591Z,8.87
2019-02-15T18:08:17.059Z,15.00
2019-02-15T18:10:18.464Z,16.23
2019-02-15T18:12:19.811Z,8.83
2019-02-15T18:14:21.165Z,8.40
2019-02-15T18:16:22.600Z,8.90
2019-02-15T18:18:23.983Z,12.17
2019-02-15T18:20:25.300Z,9.40
2019-02-15T18:22:26.730Z,9.40
2019-02-15T18:24:28.095Z,9.67
2019-02-15T18:26:29.596Z,11.17
2019-02-15T18:28:30.936Z,10.43
2019-02-15T18:30:32.416Z,10.60
2019-02-15T18:32:34.136Z,9.23
2019-02-15T18:34:35.508Z,10.43
2019-02-15T18:36:36.861Z,13.93
2019-02-15T18:38:38.266Z,12.60
2019-02-15T18:40:39.681Z,16.30
2019-02-15T18:42:41.090Z,11.60
2019-02-15T18:44:42.444Z,11.70
2019-02-15T18:46:43.815Z,10.43
2019-02-15T18:48:45.393Z,11.60
2019-02-15T18:50:46.765Z,10.80
2019-02-15T18:52:48.114Z,12.03
2019-02-15T18:54:49.541Z,11.50
2019-02-15T18:56:50.913Z,12.50
2019-02-15T18:58:52.267Z,12.40
2019-02-15T19:00:53.665Z,13.93
2019-02-15T19:02:55.060Z,17.13
2019-02-15T19:04:56.453Z,12.90
2019-02-15T19:06:57.853Z,12.47
2019-02-15T19:08:59.222Z,14.03
2019-02-15T19:11:00.588Z,12.43
2019-02-15T19:13:02.161Z,12.50
2019-02-15T19:15:08.045Z,12.37
2019-02-15T19:17:09.406Z,14.70
2019-02-15T19:19:10.830Z,15.00
2019-02-15T19:21:12.183Z,11.10
2019-02-15T19:23:13.555Z,13.60
2019-02-15T19:25:17.798Z,11.53
2019-02-15T19:27:19.237Z,11.30
2019-02-15T19:29:20.576Z,9.33
2019-02-15T19:31:22.024Z,12.63
2019-02-15T19:33:23.377Z,18.87
2019-02-15T19:35:24.717Z,16.47
2019-02-15T19:37:26.205Z,18.73
2019-02-15T19:39:27.568Z,14.60
2019-02-15T19:41:28.934Z,15.20
2019-02-15T19:43:30.455Z,18.17
2019-02-15T19:45:31.822Z,15.57
2019-02-15T19:47:33.177Z,13.67
2019-02-15T19:49:38.768Z,15.00
2019-02-15T19:51:38.810Z,13.83
2019-02-15T19:53:40.157Z,14.60
2019-02-15T19:55:41.519Z,11.57
2019-02-15T19:57:43.095Z,16.00
2019-02-15T19:59:53.355Z,24.43
2019-02-15T20:01:47.693Z,18.93
2019-02-15T20:03:49.119Z,20.23
2019-02-15T20:05:50.691Z,27.27
2019-02-15T20:07:52.051Z,20.70
2019-02-15T20:09:53.407Z,23.33
2019-02-15T20:11:54.840Z,22.70
2019-02-15T20:13:56.192Z,19.43
2019-02-15T20:15:57.547Z,17.30
2019-02-15T20:17:58.951Z,18.20
2019-02-15T20:20:00.666Z,19.17
2019-02-15T20:22:02.018Z,17.53
2019-02-15T20:24:03.365Z,18.40
2019-02-15T20:26:04.885Z,16.97
2019-02-15T20:28:13.691Z,15.97
2019-02-15T20:30:19.669Z,16.13
2019-02-15T20:32:21.044Z,13.80
2019-02-15T20:34:22.410Z,15.30
2019-02-15T20:36:23.830Z,14.00
2019-02-15T20:38:25.188Z,13.77
2019-02-15T20:40:28.456Z,14.00
2019-02-15T20:42:29.875Z,14.07
2019-02-15T20:44:31.235Z,13.90
2019-02-15T20:46:32.599Z,14.03
2019-02-15T20:48:34.021Z,14.73
2019-02-15T20:50:35.374Z,13.67
2019-02-15T20:52:36.726Z,14.60
2019-02-15T20:54:38.159Z,16.17
2019-02-15T20:56:39.543Z,14.67
2019-02-15T20:58:41.133Z,13.97
2019-02-15T21:00:42.489Z,17.30
2019-02-15T21:02:44.026Z,15.30
2019-02-15T21:04:45.453Z,15.33
2019-02-15T21:06:46.817Z,12.70
2019-02-15T21:08:48.219Z,14.00
2019-02-15T21:10:55.069Z,14.70
2019-02-15T21:12:54.239Z,12.03
2019-02-15T21:14:55.608Z,14.10
2019-02-15T21:16:57.024Z,14.93
2019-02-15T21:18:58.393Z,17.13
2019-02-15T21:20:59.800Z,24.33
2019-02-15T21:23:01.971Z,23.33
2019-02-15T21:25:07.987Z,15.40
2019-02-15T21:27:09.329Z,24.20
2019-02-15T21:29:10.815Z,28.17
2019-02-15T21:31:12.229Z,27.57
2019-02-15T21:33:13.589Z,19.43
2019-02-15T21:35:14.943Z,17.30
2019-02-15T21:37:16.350Z,13.87
2019-02-15T21:39:17.786Z,14.23
2019-02-15T21:41:19.142Z,14.47
2019-02-15T21:43:20.485Z,14.47
2019-02-15T21:45:21.976Z,16.40
2019-02-15T21:47:23.471Z,13.47
2019-02-15T21:49:24.838Z,14.40
2019-02-15T21:51:26.221Z,19.30
2019-02-15T21:53:27.629Z,18.70
2019-02-15T21:55:37.143Z,12.90
2019-02-15T21:57:40.398Z,12.33
2019-02-15T21:59:43.702Z,12.90
2019-02-15T22:01:46.969Z,33.53
2019-02-15T22:03:49.991Z,58.60
2019-02-15T22:05:53.318Z,21.07
2019-02-15T22:07:54.969Z,19.90
2019-02-15T22:09:56.546Z,15.00
2019-02-15T22:11:57.954Z,14.53
2019-02-15T22:13:59.307Z,16.17
2019-02-15T22:16:00.661Z,15.23
2019-02-15T22:18:02.093Z,14.17
2019-02-15T22:20:08.253Z,14.50
2019-02-15T22:22:09.596Z,13.53
2019-02-15T22:24:11.135Z,15.17
2019-02-15T22:26:12.561Z,14.27
2019-02-15T22:28:13.939Z,13.73
2019-02-15T22:30:17.552Z,15.25
2019-02-15T22:32:18.939Z,12.87
2019-02-15T22:34:20.336Z,12.13
2019-02-15T22:36:21.732Z,14.80
2019-02-15T22:38:23.109Z,14.05
2019-02-15T22:40:44.498Z,14.95
2019-02-15T22:42:45.867Z,14.87
2019-02-15T22:44:47.218Z,13.38
2019-02-15T22:46:48.817Z,13.68
2019-02-15T22:48:51.087Z,13.38
2019-02-15T22:50:52.454Z,13.72
2019-02-15T22:52:53.847Z,14.70
2019-02-15T22:54:55.222Z,12.30
2019-02-15T22:56:56.574Z,13.38
2019-02-15T22:58:58.003Z,12.07
2019-02-15T23:01:10.124Z,13.50
2019-02-15T23:03:11.944Z,13.20
2019-02-15T23:05:13.351Z,12.10
2019-02-15T23:07:14.815Z,10.70
2019-02-15T23:09:20.750Z,14.23
2019-02-15T23:11:22.233Z,11.18
2019-02-15T23:13:23.650Z,11.80
2019-02-15T23:15:25.060Z,11.10
2019-02-15T23:17:26.490Z,10.78
2019-02-15T23:19:27.861Z,12.20
2019-02-15T23:21:29.247Z,11.63
2019-02-15T23:23:30.762Z,11.43
2019-02-15T23:25:32.091Z,9.85
2019-02-15T23:27:33.505Z,12.70
2019-02-15T23:29:34.907Z,10.30
2019-02-15T23:31:36.271Z,10.25
2019-02-15T23:33:37.619Z,9.63
2019-02-15T23:35:38.997Z,9.88
2019-02-15T23:37:40.382Z,10.98
2019-02-15T23:39:41.722Z,8.63
2019-02-15T23:41:43.105Z,9.10
2019-02-15T23:43:44.480Z,8.65
2019-02-15T23:45:45.916Z,12.85
2019-02-15T23:47:47.322Z,10.43
2019-02-15T23:49:48.791Z,12.75
2019-02-15T23:51:50.151Z,13.28
2019-02-15T23:53:51.543Z,12.45
2019-02-15T23:55:52.900Z,11.12
2019-02-15T23:57:54.331Z,12.58
2019-02-15T23:59:55.744Z,12.50
